Terminal Aerodrome Forecast
Issued by NWS

Home | Current Version | Previous Version | Text Only | Print | Product List | Glossary On
Versions: 1 2 3 4 5 6 7 8 9 10 11 12 13
758
FTUS45 KRIW 230537
TAFCPR
TAF
KCPR 230537Z 2306/2406 22022G32KT P6SM VCSH SCT050 BKN080
     FM231200 22014G20KT P6SM BKN080 WS020/23040KT
     FM232100 26011KT P6SM VCSH SCT030 BKN050
     FM232300 01010KT 5SM -SN SCT025 BKN040
     FM240100 02010G15KT 1SM -SN SCT015 OVC025=

USA.gov is the U.S. government's official web portal to all federal, state and local government web resources and services.